sensor_id;sensor_type;location;lat;lon;timestamp;P1;durP1;ratioP1;P2;durP2;ratioP2
1703;SDS011;849;48.780;9.216;2023-06-10T00:01:39;39.97;;;1.20;;
1703;SDS011;849;48.780;9.216;2023-06-10T00:04:16;39.87;;;1.30;;
1703;SDS011;849;48.780;9.216;2023-06-10T00:06:47;39.63;;;1.20;;
1703;SDS011;849;48.780;9.216;2023-06-10T00:09:19;39.17;;;1.23;;
1703;SDS011;849;48.780;9.216;2023-06-10T00:11:51;39.23;;;1.50;;
1703;SDS011;849;48.780;9.216;2023-06-10T00:14:22;38.57;;;1.47;;
1703;SDS011;849;48.780;9.216;2023-06-10T00:16:52;38.47;;;1.33;;
1703;SDS011;849;48.780;9.216;2023-06-10T00:19:23;38.23;;;1.10;;
1703;SDS011;849;48.780;9.216;2023-06-10T00:22:00;37.87;;;1.00;;
1703;SDS011;849;48.780;9.216;2023-06-10T00:24:31;38.80;;;2.53;;
1703;SDS011;849;48.780;9.216;2023-06-10T00:27:01;38.07;;;1.10;;
1703;SDS011;849;48.780;9.216;2023-06-10T00:29:33;38.70;;;2.63;;
1703;SDS011;849;48.780;9.216;2023-06-10T00:32:04;38.03;;;1.10;;
1703;SDS011;849;48.780;9.216;2023-06-10T00:34:35;37.73;;;1.10;;
1703;SDS011;849;48.780;9.216;2023-06-10T00:37:06;37.67;;;1.00;;
1703;SDS011;849;48.780;9.216;2023-06-10T00:39:37;37.33;;;1.00;;
1703;SDS011;849;48.780;9.216;2023-06-10T00:42:07;37.07;;;1.20;;
1703;SDS011;849;48.780;9.216;2023-06-10T00:44:40;37.03;;;1.00;;
1703;SDS011;849;48.780;9.216;2023-06-10T00:47:11;37.00;;;0.90;;
1703;SDS011;849;48.780;9.216;2023-06-10T00:49:42;36.43;;;0.90;;
1703;SDS011;849;48.780;9.216;2023-06-10T00:52:14;35.50;;;0.90;;
1703;SDS011;849;48.780;9.216;2023-06-10T00:54:46;35.87;;;0.90;;
1703;SDS011;849;48.780;9.216;2023-06-10T00:57:17;34.57;;;0.80;;
1703;SDS011;849;48.780;9.216;2023-06-10T00:59:48;34.73;;;0.80;;
1703;SDS011;849;48.780;9.216;2023-06-10T01:02:20;34.57;;;0.80;;
1703;SDS011;849;48.780;9.216;2023-06-10T01:04:51;33.40;;;0.70;;
1703;SDS011;849;48.780;9.216;2023-06-10T01:07:30;41.63;;;12.40;;
1703;SDS011;849;48.780;9.216;2023-06-10T01:13:03;32.10;;;1.27;;
1703;SDS011;849;48.780;9.216;2023-06-10T01:15:38;31.50;;;0.70;;
1703;SDS011;849;48.780;9.216;2023-06-10T01:18:10;30.30;;;0.60;;
1703;SDS011;849;48.780;9.216;2023-06-10T01:20:46;30.57;;;0.60;;
1703;SDS011;849;48.780;9.216;2023-06-10T01:23:18;30.20;;;0.60;;
1703;SDS011;849;48.780;9.216;2023-06-10T01:25:52;30.30;;;0.60;;
1703;SDS011;849;48.780;9.216;2023-06-10T01:31:13;30.37;;;0.60;;
1703;SDS011;849;48.780;9.216;2023-06-10T01:33:50;28.90;;;0.63;;
1703;SDS011;849;48.780;9.216;2023-06-10T01:36:22;28.93;;;0.60;;
1703;SDS011;849;48.780;9.216;2023-06-10T01:38:54;29.30;;;0.60;;
1703;SDS011;849;48.780;9.216;2023-06-10T01:41:26;29.30;;;0.60;;
1703;SDS011;849;48.780;9.216;2023-06-10T01:43:57;29.00;;;0.87;;
1703;SDS011;849;48.780;9.216;2023-06-10T01:46:28;27.07;;;0.60;;
1703;SDS011;849;48.780;9.216;2023-06-10T01:48:59;26.60;;;0.60;;
1703;SDS011;849;48.780;9.216;2023-06-10T01:51:30;27.40;;;0.60;;
1703;SDS011;849;48.780;9.216;2023-06-10T01:54:01;26.80;;;0.50;;
1703;SDS011;849;48.780;9.216;2023-06-10T01:56:32;27.23;;;0.80;;
1703;SDS011;849;48.780;9.216;2023-06-10T01:59:03;26.43;;;0.50;;
1703;SDS011;849;48.780;9.216;2023-06-10T02:01:34;39.07;;;1.30;;
1703;SDS011;849;48.780;9.216;2023-06-10T02:04:05;39.50;;;1.40;;
1703;SDS011;849;48.780;9.216;2023-06-10T02:06:36;39.33;;;1.20;;
1703;SDS011;849;48.780;9.216;2023-06-10T02:09:07;39.83;;;1.40;;
1703;SDS011;849;48.780;9.216;2023-06-10T02:11:38;40.03;;;1.40;;
1703;SDS011;849;48.780;9.216;2023-06-10T02:14:10;39.67;;;1.30;;
1703;SDS011;849;48.780;9.216;2023-06-10T02:16:40;39.27;;;1.13;;
1703;SDS011;849;48.780;9.216;2023-06-10T02:19:12;38.93;;;1.23;;
1703;SDS011;849;48.780;9.216;2023-06-10T02:21:38;39.00;;;1.20;;
1703;SDS011;849;48.780;9.216;2023-06-10T02:24:09;38.87;;;1.20;;
1703;SDS011;849;48.780;9.216;2023-06-10T02:26:40;38.20;;;1.20;;
1703;SDS011;849;48.780;9.216;2023-06-10T02:29:11;39.23;;;1.23;;
1703;SDS011;849;48.780;9.216;2023-06-10T02:31:42;39.17;;;1.20;;
1703;SDS011;849;48.780;9.216;2023-06-10T02:34:13;38.73;;;1.40;;
1703;SDS011;849;48.780;9.216;2023-06-10T02:36:44;39.13;;;1.30;;
1703;SDS011;849;48.780;9.216;2023-06-10T02:39:15;39.03;;;1.40;;
1703;SDS011;849;48.780;9.216;2023-06-10T02:41:46;38.43;;;1.20;;
1703;SDS011;849;48.780;9.216;2023-06-10T02:44:17;38.57;;;1.20;;
1703;SDS011;849;48.780;9.216;2023-06-10T02:46:49;38.63;;;1.87;;
1703;SDS011;849;48.780;9.216;2023-06-10T02:49:19;38.53;;;1.53;;
1703;SDS011;849;48.780;9.216;2023-06-10T02:51:50;37.97;;;1.07;;
1703;SDS011;849;48.780;9.216;2023-06-10T02:54:23;38.07;;;1.10;;
1703;SDS011;849;48.780;9.216;2023-06-10T02:56:54;38.20;;;1.13;;
1703;SDS011;849;48.780;9.216;2023-06-10T02:59:28;38.33;;;1.03;;
1703;SDS011;849;48.780;9.216;2023-06-10T03:01:59;44.17;;;3.33;;
1703;SDS011;849;48.780;9.216;2023-06-10T03:04:31;38.27;;;1.10;;
1703;SDS011;849;48.780;9.216;2023-06-10T03:07:02;38.37;;;1.10;;
1703;SDS011;849;48.780;9.216;2023-06-10T03:09:34;37.97;;;1.00;;
1703;SDS011;849;48.780;9.216;2023-06-10T03:12:05;37.97;;;1.13;;
1703;SDS011;849;48.780;9.216;2023-06-10T03:14:36;37.87;;;1.00;;
1703;SDS011;849;48.780;9.216;2023-06-10T03:17:08;37.87;;;1.10;;
1703;SDS011;849;48.780;9.216;2023-06-10T03:19:39;37.67;;;1.10;;
1703;SDS011;849;48.780;9.216;2023-06-10T03:22:11;37.80;;;1.10;;
1703;SDS011;849;48.780;9.216;2023-06-10T03:24:43;37.67;;;1.20;;
1703;SDS011;849;48.780;9.216;2023-06-10T03:27:17;37.97;;;1.50;;
1703;SDS011;849;48.780;9.216;2023-06-10T03:29:48;37.47;;;1.10;;
1703;SDS011;849;48.780;9.216;2023-06-10T03:32:19;37.53;;;1.10;;
1703;SDS011;849;48.780;9.216;2023-06-10T03:34:49;37.13;;;0.90;;
1703;SDS011;849;48.780;9.216;2023-06-10T03:37:21;37.07;;;1.00;;
1703;SDS011;849;48.780;9.216;2023-06-10T03:39:52;37.17;;;1.00;;
1703;SDS011;849;48.780;9.216;2023-06-10T03:42:23;37.07;;;1.00;;
1703;SDS011;849;48.780;9.216;2023-06-10T03:44:53;36.93;;;1.00;;
1703;SDS011;849;48.780;9.216;2023-06-10T03:47:25;36.77;;;1.00;;
1703;SDS011;849;48.780;9.216;2023-06-10T03:49:56;36.87;;;1.00;;
1703;SDS011;849;48.780;9.216;2023-06-10T03:52:27;36.77;;;1.00;;
1703;SDS011;849;48.780;9.216;2023-06-10T03:54:57;36.67;;;0.90;;
1703;SDS011;849;48.780;9.216;2023-06-10T03:57:28;36.57;;;1.00;;
1703;SDS011;849;48.780;9.216;2023-06-10T03:59:59;36.43;;;1.00;;
1703;SDS011;849;48.780;9.216;2023-06-10T04:02:30;36.33;;;1.00;;
1703;SDS011;849;48.780;9.216;2023-06-10T04:05:03;35.97;;;1.20;;
1703;SDS011;849;48.780;9.216;2023-06-10T04:07:34;36.17;;;0.90;;
1703;SDS011;849;48.780;9.216;2023-06-10T04:10:06;35.93;;;0.90;;
1703;SDS011;849;48.780;9.216;2023-06-10T04:12:37;42.10;;;3.33;;
1703;SDS011;849;48.780;9.216;2023-06-10T04:15:08;35.87;;;0.90;;
1703;SDS011;849;48.780;9.216;2023-06-10T04:17:39;35.97;;;0.90;;
1703;SDS011;849;48.780;9.216;2023-06-10T04:20:11;35.93;;;0.97;;
1703;SDS011;849;48.780;9.216;2023-06-10T04:22:42;35.83;;;0.80;;
1703;SDS011;849;48.780;9.216;2023-06-10T04:25:12;35.97;;;0.90;;
1703;SDS011;849;48.780;9.216;2023-06-10T04:27:43;35.77;;;0.90;;
1703;SDS011;849;48.780;9.216;2023-06-10T04:30:16;36.03;;;0.90;;
1703;SDS011;849;48.780;9.216;2023-06-10T04:32:47;35.87;;;0.90;;
1703;SDS011;849;48.780;9.216;2023-06-10T04:35:18;35.87;;;0.90;;
1703;SDS011;849;48.780;9.216;2023-06-10T04:37:48;35.63;;;0.80;;
1703;SDS011;849;48.780;9.216;2023-06-10T04:40:19;35.80;;;1.00;;
1703;SDS011;849;48.780;9.216;2023-06-10T04:42:50;35.70;;;0.90;;
1703;SDS011;849;48.780;9.216;2023-06-10T04:45:21;35.57;;;0.90;;
1703;SDS011;849;48.780;9.216;2023-06-10T04:47:52;40.97;;;9.40;;
1703;SDS011;849;48.780;9.216;2023-06-10T04:50:26;35.80;;;0.90;;
1703;SDS011;849;48.780;9.216;2023-06-10T04:52:57;35.63;;;0.90;;
1703;SDS011;849;48.780;9.216;2023-06-10T04:55:28;35.63;;;0.90;;
1703;SDS011;849;48.780;9.216;2023-06-10T04:57:59;35.83;;;0.87;;
1703;SDS011;849;48.780;9.216;2023-06-10T05:00:30;35.97;;;0.90;;
1703;SDS011;849;48.780;9.216;2023-06-10T05:03:00;36.03;;;0.90;;
1703;SDS011;849;48.780;9.216;2023-06-10T05:05:31;36.20;;;0.90;;
1703;SDS011;849;48.780;9.216;2023-06-10T05:08:02;36.70;;;0.90;;
1703;SDS011;849;48.780;9.216;2023-06-10T05:10:33;36.87;;;0.90;;
1703;SDS011;849;48.780;9.216;2023-06-10T05:13:04;36.97;;;1.00;;
1703;SDS011;849;48.780;9.216;2023-06-10T05:15:35;37.63;;;1.00;;
1703;SDS011;849;48.780;9.216;2023-06-10T05:18:06;37.67;;;1.00;;
1703;SDS011;849;48.780;9.216;2023-06-10T05:20:36;38.17;;;1.10;;
1703;SDS011;849;48.780;9.216;2023-06-10T05:23:07;38.23;;;1.00;;
1703;SDS011;849;48.780;9.216;2023-06-10T05:25:38;38.63;;;1.10;;
1703;SDS011;849;48.780;9.216;2023-06-10T05:28:09;38.70;;;1.10;;
1703;SDS011;849;48.780;9.216;2023-06-10T05:30:40;38.87;;;1.10;;
1703;SDS011;849;48.780;9.216;2023-06-10T05:33:10;39.13;;;1.20;;
1703;SDS011;849;48.780;9.216;2023-06-10T05:35:41;39.37;;;1.20;;
1703;SDS011;849;48.780;9.216;2023-06-10T05:38:12;39.60;;;1.10;;
1703;SDS011;849;48.780;9.216;2023-06-10T05:40:43;40.17;;;1.20;;
1703;SDS011;849;48.780;9.216;2023-06-10T05:43:13;40.97;;;2.03;;
1703;SDS011;849;48.780;9.216;2023-06-10T05:45:46;40.97;;;1.40;;
1703;SDS011;849;48.780;9.216;2023-06-10T05:48:17;41.07;;;1.60;;
1703;SDS011;849;48.780;9.216;2023-06-10T05:50:50;41.43;;;1.50;;
1703;SDS011;849;48.780;9.216;2023-06-10T05:53:20;41.53;;;1.60;;
1703;SDS011;849;48.780;9.216;2023-06-10T05:55:51;41.47;;;1.70;;
1703;SDS011;849;48.780;9.216;2023-06-10T05:58:23;41.43;;;1.50;;
1703;SDS011;849;48.780;9.216;2023-06-10T06:00:54;41.60;;;1.63;;
1703;SDS011;849;48.780;9.216;2023-06-10T06:03:25;41.60;;;1.50;;
1703;SDS011;849;48.780;9.216;2023-06-10T06:05:58;41.67;;;1.60;;
1703;SDS011;849;48.780;9.216;2023-06-10T06:08:29;42.13;;;1.70;;
1703;SDS011;849;48.780;9.216;2023-06-10T06:11:00;42.20;;;1.70;;
1703;SDS011;849;48.780;9.216;2023-06-10T06:13:31;42.27;;;1.60;;
1703;SDS011;849;48.780;9.216;2023-06-10T06:16:02;42.37;;;1.50;;
1703;SDS011;849;48.780;9.216;2023-06-10T06:18:32;42.53;;;1.80;;
1703;SDS011;849;48.780;9.216;2023-06-10T06:21:03;42.60;;;1.60;;
1703;SDS011;849;48.780;9.216;2023-06-10T06:23:34;42.67;;;1.60;;
1703;SDS011;849;48.780;9.216;2023-06-10T06:26:05;42.77;;;1.80;;
1703;SDS011;849;48.780;9.216;2023-06-10T06:28:36;42.97;;;1.80;;
1703;SDS011;849;48.780;9.216;2023-06-10T06:31:07;43.77;;;2.90;;
1703;SDS011;849;48.780;9.216;2023-06-10T06:33:38;43.07;;;1.90;;
1703;SDS011;849;48.780;9.216;2023-06-10T06:36:08;43.00;;;1.83;;
1703;SDS011;849;48.780;9.216;2023-06-10T06:38:39;43.07;;;1.80;;
1703;SDS011;849;48.780;9.216;2023-06-10T06:41:10;43.10;;;1.90;;
1703;SDS011;849;48.780;9.216;2023-06-10T06:43:41;43.00;;;1.83;;
1703;SDS011;849;48.780;9.216;2023-06-10T06:46:13;42.97;;;2.23;;
1703;SDS011;849;48.780;9.216;2023-06-10T06:48:44;43.10;;;2.10;;
1703;SDS011;849;48.780;9.216;2023-06-10T06:51:15;43.03;;;1.80;;
1703;SDS011;849;48.780;9.216;2023-06-10T06:53:46;43.13;;;2.20;;
1703;SDS011;849;48.780;9.216;2023-06-10T06:56:17;43.20;;;1.83;;
1703;SDS011;849;48.780;9.216;2023-06-10T06:58:48;43.43;;;1.90;;
1703;SDS011;849;48.780;9.216;2023-06-10T07:01:18;43.53;;;1.90;;
1703;SDS011;849;48.780;9.216;2023-06-10T07:03:49;43.63;;;2.00;;
1703;SDS011;849;48.780;9.216;2023-06-10T07:06:20;44.70;;;2.47;;
1703;SDS011;849;48.780;9.216;2023-06-10T07:08:51;43.63;;;1.93;;
1703;SDS011;849;48.780;9.216;2023-06-10T07:11:22;43.67;;;2.00;;
1703;SDS011;849;48.780;9.216;2023-06-10T07:13:53;43.70;;;2.10;;
1703;SDS011;849;48.780;9.216;2023-06-10T07:16:24;43.80;;;2.27;;
1703;SDS011;849;48.780;9.216;2023-06-10T07:18:55;43.90;;;2.20;;
1703;SDS011;849;48.780;9.216;2023-06-10T07:21:25;43.90;;;2.03;;
1703;SDS011;849;48.780;9.216;2023-06-10T07:23:58;43.90;;;2.17;;
1703;SDS011;849;48.780;9.216;2023-06-10T07:26:29;44.13;;;2.30;;
1703;SDS011;849;48.780;9.216;2023-06-10T07:29:01;44.87;;;2.83;;
1703;SDS011;849;48.780;9.216;2023-06-10T07:31:32;44.37;;;2.20;;
1703;SDS011;849;48.780;9.216;2023-06-10T07:34:03;44.37;;;2.50;;
1703;SDS011;849;48.780;9.216;2023-06-10T07:36:34;44.10;;;2.30;;
1703;SDS011;849;48.780;9.216;2023-06-10T07:39:05;44.07;;;2.17;;
1703;SDS011;849;48.780;9.216;2023-06-10T07:41:36;43.93;;;2.20;;
1703;SDS011;849;48.780;9.216;2023-06-10T07:44:06;44.00;;;2.10;;
1703;SDS011;849;48.780;9.216;2023-06-10T07:46:37;43.87;;;2.07;;
1703;SDS011;849;48.780;9.216;2023-06-10T07:49:08;44.13;;;2.00;;
1703;SDS011;849;48.780;9.216;2023-06-10T07:51:39;44.37;;;2.10;;
1703;SDS011;849;48.780;9.216;2023-06-10T07:54:10;44.27;;;2.10;;
1703;SDS011;849;48.780;9.216;2023-06-10T07:56:42;44.33;;;2.20;;
1703;SDS011;849;48.780;9.216;2023-06-10T07:59:13;44.43;;;2.53;;
1703;SDS011;849;48.780;9.216;2023-06-10T08:01:44;44.47;;;2.53;;
1703;SDS011;849;48.780;9.216;2023-06-10T08:04:15;44.47;;;2.20;;
1703;SDS011;849;48.780;9.216;2023-06-10T08:06:46;44.47;;;2.40;;
1703;SDS011;849;48.780;9.216;2023-06-10T08:09:17;44.40;;;2.27;;
1703;SDS011;849;48.780;9.216;2023-06-10T08:11:49;44.40;;;2.10;;
1703;SDS011;849;48.780;9.216;2023-06-10T08:14:20;44.60;;;2.70;;
1703;SDS011;849;48.780;9.216;2023-06-10T08:16:50;44.50;;;2.17;;
1703;SDS011;849;48.780;9.216;2023-06-10T08:19:21;47.03;;;3.47;;
1703;SDS011;849;48.780;9.216;2023-06-10T08:21:52;45.00;;;2.30;;
1703;SDS011;849;48.780;9.216;2023-06-10T08:24:23;44.90;;;2.40;;
1703;SDS011;849;48.780;9.216;2023-06-10T08:26:53;44.80;;;2.50;;
1703;SDS011;849;48.780;9.216;2023-06-10T08:29:26;44.80;;;2.40;;
1703;SDS011;849;48.780;9.216;2023-06-10T08:31:57;45.13;;;2.70;;
1703;SDS011;849;48.780;9.216;2023-06-10T08:34:28;45.30;;;3.00;;
1703;SDS011;849;48.780;9.216;2023-06-10T08:36:59;45.17;;;2.37;;
1703;SDS011;849;48.780;9.216;2023-06-10T08:39:29;45.47;;;3.07;;
1703;SDS011;849;48.780;9.216;2023-06-10T08:44:37;45.27;;;2.43;;
1703;SDS011;849;48.780;9.216;2023-06-10T08:47:13;45.33;;;2.90;;
1703;SDS011;849;48.780;9.216;2023-06-10T08:49:46;45.40;;;2.40;;
1703;SDS011;849;48.780;9.216;2023-06-10T08:52:17;45.60;;;2.33;;
1703;SDS011;849;48.780;9.216;2023-06-10T08:54:54;45.70;;;2.60;;
1703;SDS011;849;48.780;9.216;2023-06-10T08:57:30;45.70;;;2.90;;
1703;SDS011;849;48.780;9.216;2023-06-10T09:00:01;46.45;;;2.63;;
1703;SDS011;849;48.780;9.216;2023-06-10T09:02:28;45.70;;;2.97;;
1703;SDS011;849;48.780;9.216;2023-06-10T09:04:59;46.03;;;3.00;;
1703;SDS011;849;48.780;9.216;2023-06-10T09:07:31;46.57;;;3.73;;
1703;SDS011;849;48.780;9.216;2023-06-10T09:10:02;46.00;;;2.47;;
1703;SDS011;849;48.780;9.216;2023-06-10T09:12:35;46.43;;;3.50;;
1703;SDS011;849;48.780;9.216;2023-06-10T09:15:07;46.10;;;2.67;;
1703;SDS011;849;48.780;9.216;2023-06-10T09:17:38;45.90;;;2.60;;
1703;SDS011;849;48.780;9.216;2023-06-10T09:20:10;45.87;;;2.80;;
1703;SDS011;849;48.780;9.216;2023-06-10T09:22:42;46.10;;;2.70;;
1703;SDS011;849;48.780;9.216;2023-06-10T09:25:13;46.10;;;2.60;;
1703;SDS011;849;48.780;9.216;2023-06-10T09:30:26;46.80;;;5.10;;
1703;SDS011;849;48.780;9.216;2023-06-10T09:33:02;46.10;;;2.50;;
1703;SDS011;849;48.780;9.216;2023-06-10T09:35:45;45.90;;;2.57;;
1703;SDS011;849;48.780;9.216;2023-06-10T09:38:20;46.10;;;2.70;;
1703;SDS011;849;48.780;9.216;2023-06-10T09:40:52;46.53;;;2.87;;
1703;SDS011;849;48.780;9.216;2023-06-10T09:43:38;46.30;;;2.90;;
1703;SDS011;849;48.780;9.216;2023-06-10T09:46:14;46.10;;;2.60;;
1703;SDS011;849;48.780;9.216;2023-06-10T09:48:47;46.07;;;2.60;;
1703;SDS011;849;48.780;9.216;2023-06-10T09:51:18;46.80;;;3.57;;
1703;SDS011;849;48.780;9.216;2023-06-10T09:53:53;46.50;;;2.80;;
1703;SDS011;849;48.780;9.216;2023-06-10T09:56:34;46.50;;;2.83;;
1703;SDS011;849;48.780;9.216;2023-06-10T09:59:05;46.30;;;2.60;;
1703;SDS011;849;48.780;9.216;2023-06-10T10:01:32;46.40;;;3.00;;
1703;SDS011;849;48.780;9.216;2023-06-10T10:04:03;46.27;;;2.80;;
1703;SDS011;849;48.780;9.216;2023-06-10T10:06:34;46.47;;;3.13;;
1703;SDS011;849;48.780;9.216;2023-06-10T10:09:06;46.60;;;2.80;;
1703;SDS011;849;48.780;9.216;2023-06-10T10:11:37;46.60;;;2.87;;
1703;SDS011;849;48.780;9.216;2023-06-10T10:14:08;46.53;;;2.63;;
1703;SDS011;849;48.780;9.216;2023-06-10T10:16:40;46.60;;;2.67;;
1703;SDS011;849;48.780;9.216;2023-06-10T10:19:15;46.60;;;3.10;;
1703;SDS011;849;48.780;9.216;2023-06-10T10:21:52;46.37;;;2.70;;
1703;SDS011;849;48.780;9.216;2023-06-10T10:25:10;46.60;;;2.60;;
1703;SDS011;849;48.780;9.216;2023-06-10T10:27:30;46.33;;;2.70;;
1703;SDS011;849;48.780;9.216;2023-06-10T10:30:06;46.47;;;2.70;;
1703;SDS011;849;48.780;9.216;2023-06-10T10:32:46;46.40;;;2.60;;
1703;SDS011;849;48.780;9.216;2023-06-10T10:35:20;46.53;;;2.60;;
1703;SDS011;849;48.780;9.216;2023-06-10T10:37:53;46.50;;;2.83;;
1703;SDS011;849;48.780;9.216;2023-06-10T10:40:25;46.20;;;2.77;;
1703;SDS011;849;48.780;9.216;2023-06-10T10:42:59;45.90;;;2.53;;
1703;SDS011;849;48.780;9.216;2023-06-10T10:45:30;46.00;;;2.70;;
1703;SDS011;849;48.780;9.216;2023-06-10T10:48:10;45.50;;;2.43;;
1703;SDS011;849;48.780;9.216;2023-06-10T10:50:42;46.07;;;2.50;;
1703;SDS011;849;48.780;9.216;2023-06-10T10:53:12;45.80;;;2.50;;
1703;SDS011;849;48.780;9.216;2023-06-10T10:59:04;45.20;;;2.50;;
1703;SDS011;849;48.780;9.216;2023-06-10T11:01:41;45.00;;;2.43;;
1703;SDS011;849;48.780;9.216;2023-06-10T11:04:17;44.97;;;2.20;;
1703;SDS011;849;48.780;9.216;2023-06-10T11:06:52;45.30;;;2.10;;
1703;SDS011;849;48.780;9.216;2023-06-10T11:09:27;45.20;;;2.50;;
1703;SDS011;849;48.780;9.216;2023-06-10T11:12:01;44.50;;;2.10;;
1703;SDS011;849;48.780;9.216;2023-06-10T11:14:36;44.50;;;2.73;;
1703;SDS011;849;48.780;9.216;2023-06-10T11:17:18;44.57;;;2.10;;
1703;SDS011;849;48.780;9.216;2023-06-10T11:19:49;44.83;;;2.10;;
1703;SDS011;849;48.780;9.216;2023-06-10T11:22:20;44.70;;;2.00;;
1703;SDS011;849;48.780;9.216;2023-06-10T11:24:51;44.50;;;2.50;;
1703;SDS011;849;48.780;9.216;2023-06-10T11:27:22;44.57;;;2.17;;
1703;SDS011;849;48.780;9.216;2023-06-10T11:32:31;45.03;;;2.30;;
1703;SDS011;849;48.780;9.216;2023-06-10T11:35:03;44.67;;;2.30;;
1703;SDS011;849;48.780;9.216;2023-06-10T11:37:34;44.80;;;2.20;;
1703;SDS011;849;48.780;9.216;2023-06-10T11:40:06;44.40;;;2.13;;
1703;SDS011;849;48.780;9.216;2023-06-10T11:42:40;44.47;;;2.20;;
1703;SDS011;849;48.780;9.216;2023-06-10T11:45:14;44.47;;;2.10;;
1703;SDS011;849;48.780;9.216;2023-06-10T11:47:56;44.50;;;1.90;;
1703;SDS011;849;48.780;9.216;2023-06-10T11:50:31;44.50;;;2.27;;
1703;SDS011;849;48.780;9.216;2023-06-10T11:53:03;43.70;;;1.97;;
1703;SDS011;849;48.780;9.216;2023-06-10T11:58:14;43.50;;;1.70;;
1703;SDS011;849;48.780;9.216;2023-06-10T12:00:51;43.73;;;1.90;;
1703;SDS011;849;48.780;9.216;2023-06-10T12:03:35;43.67;;;1.80;;
1703;SDS011;849;48.780;9.216;2023-06-10T12:06:07;43.57;;;1.93;;
1703;SDS011;849;48.780;9.216;2023-06-10T12:08:41;45.13;;;2.33;;
1703;SDS011;849;48.780;9.216;2023-06-10T12:11:13;45.10;;;2.30;;
1703;SDS011;849;48.780;9.216;2023-06-10T12:13:48;45.47;;;2.70;;
1703;SDS011;849;48.780;9.216;2023-06-10T12:16:20;45.60;;;2.37;;
1703;SDS011;849;48.780;9.216;2023-06-10T12:18:50;45.30;;;2.50;;
1703;SDS011;849;48.780;9.216;2023-06-10T12:21:31;45.60;;;2.50;;
1703;SDS011;849;48.780;9.216;2023-06-10T12:24:09;45.40;;;2.23;;
1703;SDS011;849;48.780;9.216;2023-06-10T12:26:42;45.60;;;2.37;;
1703;SDS011;849;48.780;9.216;2023-06-10T12:34:39;45.30;;;2.60;;
1703;SDS011;849;48.780;9.216;2023-06-10T12:37:11;45.20;;;2.23;;
1703;SDS011;849;48.780;9.216;2023-06-10T12:39:50;45.37;;;2.33;;
1703;SDS011;849;48.780;9.216;2023-06-10T12:42:25;45.60;;;2.60;;
1703;SDS011;849;48.780;9.216;2023-06-10T12:44:56;45.50;;;2.40;;
1703;SDS011;849;48.780;9.216;2023-06-10T12:47:33;45.47;;;2.30;;
1703;SDS011;849;48.780;9.216;2023-06-10T12:50:06;45.83;;;2.70;;
1703;SDS011;849;48.780;9.216;2023-06-10T12:52:37;45.53;;;2.33;;
1703;SDS011;849;48.780;9.216;2023-06-10T12:55:08;45.20;;;2.60;;
1703;SDS011;849;48.780;9.216;2023-06-10T12:57:47;45.40;;;2.47;;
1703;SDS011;849;48.780;9.216;2023-06-10T13:00:19;45.40;;;2.40;;
1703;SDS011;849;48.780;9.216;2023-06-10T13:02:50;45.47;;;2.40;;
1703;SDS011;849;48.780;9.216;2023-06-10T13:05:20;45.57;;;2.63;;
1703;SDS011;849;48.780;9.216;2023-06-10T13:07:51;45.90;;;2.90;;
1703;SDS011;849;48.780;9.216;2023-06-10T13:10:22;47.57;;;10.97;;
1703;SDS011;849;48.780;9.216;2023-06-10T13:12:53;44.97;;;2.70;;
1703;SDS011;849;48.780;9.216;2023-06-10T13:15:24;45.13;;;2.60;;
1703;SDS011;849;48.780;9.216;2023-06-10T13:17:56;45.37;;;3.00;;
1703;SDS011;849;48.780;9.216;2023-06-10T13:20:27;45.30;;;2.43;;
1703;SDS011;849;48.780;9.216;2023-06-10T13:22:58;45.40;;;2.40;;
1703;SDS011;849;48.780;9.216;2023-06-10T13:25:29;45.40;;;2.60;;
1703;SDS011;849;48.780;9.216;2023-06-10T13:27:59;45.70;;;2.40;;
1703;SDS011;849;48.780;9.216;2023-06-10T13:30:31;45.53;;;2.70;;
1703;SDS011;849;48.780;9.216;2023-06-10T13:33:02;45.60;;;2.57;;
1703;SDS011;849;48.780;9.216;2023-06-10T13:35:32;45.50;;;2.30;;
1703;SDS011;849;48.780;9.216;2023-06-10T13:38:03;45.60;;;2.80;;
1703;SDS011;849;48.780;9.216;2023-06-10T13:40:34;45.10;;;2.50;;
1703;SDS011;849;48.780;9.216;2023-06-10T13:43:05;45.50;;;2.30;;
1703;SDS011;849;48.780;9.216;2023-06-10T13:45:36;45.47;;;2.53;;
1703;SDS011;849;48.780;9.216;2023-06-10T13:48:06;45.20;;;2.50;;
1703;SDS011;849;48.780;9.216;2023-06-10T13:50:37;45.50;;;2.60;;
1703;SDS011;849;48.780;9.216;2023-06-10T13:53:08;45.20;;;2.40;;
1703;SDS011;849;48.780;9.216;2023-06-10T13:55:39;45.83;;;3.03;;
1703;SDS011;849;48.780;9.216;2023-06-10T13:58:10;45.77;;;2.40;;
1703;SDS011;849;48.780;9.216;2023-06-10T14:00:41;44.93;;;2.50;;
1703;SDS011;849;48.780;9.216;2023-06-10T14:03:12;44.97;;;2.80;;
1703;SDS011;849;48.780;9.216;2023-06-10T14:05:38;45.63;;;2.43;;
1703;SDS011;849;48.780;9.216;2023-06-10T14:08:09;45.60;;;2.40;;
1703;SDS011;849;48.780;9.216;2023-06-10T14:10:40;45.80;;;2.57;;
1703;SDS011;849;48.780;9.216;2023-06-10T14:13:10;45.10;;;2.50;;
1703;SDS011;849;48.780;9.216;2023-06-10T14:15:41;45.00;;;2.53;;
1703;SDS011;849;48.780;9.216;2023-06-10T14:18:12;44.90;;;2.50;;
1703;SDS011;849;48.780;9.216;2023-06-10T14:20:43;44.87;;;2.60;;
1703;SDS011;849;48.780;9.216;2023-06-10T14:23:14;45.10;;;2.40;;
1703;SDS011;849;48.780;9.216;2023-06-10T14:25:44;45.00;;;2.30;;
1703;SDS011;849;48.780;9.216;2023-06-10T14:28:15;45.63;;;2.40;;
1703;SDS011;849;48.780;9.216;2023-06-10T14:30:46;45.53;;;2.40;;
1703;SDS011;849;48.780;9.216;2023-06-10T14:33:17;45.20;;;2.50;;
1703;SDS011;849;48.780;9.216;2023-06-10T14:35:47;45.50;;;2.60;;
1703;SDS011;849;48.780;9.216;2023-06-10T14:38:18;44.90;;;2.43;;
1703;SDS011;849;48.780;9.216;2023-06-10T14:40:49;45.30;;;2.53;;
1703;SDS011;849;48.780;9.216;2023-06-10T14:43:20;45.87;;;3.57;;
1703;SDS011;849;48.780;9.216;2023-06-10T14:45:50;45.50;;;2.80;;
1703;SDS011;849;48.780;9.216;2023-06-10T14:48:21;45.50;;;2.60;;
1703;SDS011;849;48.780;9.216;2023-06-10T14:50:52;45.50;;;2.50;;
1703;SDS011;849;48.780;9.216;2023-06-10T14:53:25;46.60;;;2.80;;
1703;SDS011;849;48.780;9.216;2023-06-10T14:55:56;45.50;;;2.37;;
1703;SDS011;849;48.780;9.216;2023-06-10T14:58:22;45.63;;;2.30;;
1703;SDS011;849;48.780;9.216;2023-06-10T15:00:52;44.70;;;2.30;;
1703;SDS011;849;48.780;9.216;2023-06-10T15:03:23;44.70;;;2.23;;
1703;SDS011;849;48.780;9.216;2023-06-10T15:05:54;45.40;;;2.40;;
1703;SDS011;849;48.780;9.216;2023-06-10T15:08:25;45.50;;;2.30;;
1703;SDS011;849;48.780;9.216;2023-06-10T15:10:56;45.40;;;2.50;;
1703;SDS011;849;48.780;9.216;2023-06-10T15:13:27;45.50;;;2.30;;
1703;SDS011;849;48.780;9.216;2023-06-10T15:15:58;45.00;;;2.47;;
1703;SDS011;849;48.780;9.216;2023-06-10T15:18:29;45.20;;;2.50;;
1703;SDS011;849;48.780;9.216;2023-06-10T15:21:00;45.20;;;2.50;;
1703;SDS011;849;48.780;9.216;2023-06-10T15:23:31;45.50;;;2.40;;
1703;SDS011;849;48.780;9.216;2023-06-10T15:26:01;45.40;;;2.40;;
1703;SDS011;849;48.780;9.216;2023-06-10T15:28:32;45.30;;;2.40;;
1703;SDS011;849;48.780;9.216;2023-06-10T15:31:03;45.00;;;2.30;;
1703;SDS011;849;48.780;9.216;2023-06-10T15:33:34;45.50;;;2.33;;
1703;SDS011;849;48.780;9.216;2023-06-10T15:36:05;45.20;;;2.23;;
1703;SDS011;849;48.780;9.216;2023-06-10T15:38:36;44.97;;;2.40;;
1703;SDS011;849;48.780;9.216;2023-06-10T15:41:06;44.70;;;2.40;;
1703;SDS011;849;48.780;9.216;2023-06-10T15:43:37;45.50;;;2.40;;
1703;SDS011;849;48.780;9.216;2023-06-10T15:46:08;45.30;;;2.40;;
1703;SDS011;849;48.780;9.216;2023-06-10T15:48:39;44.77;;;2.40;;
1703;SDS011;849;48.780;9.216;2023-06-10T15:51:10;45.07;;;2.30;;
1703;SDS011;849;48.780;9.216;2023-06-10T15:53:40;45.10;;;2.50;;
1703;SDS011;849;48.780;9.216;2023-06-10T15:56:11;45.60;;;2.60;;
1703;SDS011;849;48.780;9.216;2023-06-10T15:58:42;44.73;;;2.40;;
1703;SDS011;849;48.780;9.216;2023-06-10T16:01:13;45.20;;;2.20;;
1703;SDS011;849;48.780;9.216;2023-06-10T16:03:44;44.70;;;2.40;;
1703;SDS011;849;48.780;9.216;2023-06-10T16:06:15;45.47;;;2.47;;
1703;SDS011;849;48.780;9.216;2023-06-10T16:08:45;45.03;;;2.40;;